createdAt,value
2023-01-17T00:02:28.631Z,111.50
2023-01-17T00:05:14.449Z,103.73
2023-01-17T00:08:00.494Z,104.70
2023-01-17T00:10:29.938Z,98.37
2023-01-17T00:13:00.445Z,99.73
2023-01-17T00:15:30.806Z,94.83
2023-01-17T00:18:02.346Z,100.17
2023-01-17T00:20:50.264Z,98.30
2023-01-17T00:23:37.965Z,99.20
2023-01-17T00:26:15.398Z,102.90
2023-01-17T00:28:43.969Z,92.00
2023-01-17T00:31:13.150Z,101.70
2023-01-17T00:33:44.247Z,99.40
2023-01-17T00:36:11.912Z,98.83
2023-01-17T00:38:40.392Z,110.10
2023-01-17T00:41:09.215Z,107.47
2023-01-17T00:43:55.140Z,142.10
2023-01-17T00:46:41.088Z,106.60
2023-01-17T00:49:28.507Z,120.17
2023-01-17T00:52:14.593Z,111.67
2023-01-17T00:55:00.673Z,113.10
2023-01-17T00:57:46.576Z,102.53
2023-01-17T01:00:33.407Z,106.37
2023-01-17T01:03:19.148Z,103.20
2023-01-17T01:06:06.324Z,111.63
2023-01-17T01:08:55.051Z,88.97
2023-01-17T01:11:40.817Z,100.20
2023-01-17T01:14:29.359Z,109.73
2023-01-17T01:17:15.433Z,90.57
2023-01-17T01:20:01.452Z,95.90
2023-01-17T01:22:48.565Z,93.67
2023-01-17T01:25:34.523Z,92.93
2023-01-17T01:28:24.611Z,91.80
2023-01-17T01:31:10.544Z,88.80
2023-01-17T01:33:41.017Z,85.20
2023-01-17T01:36:10.485Z,97.50
2023-01-17T01:38:43.222Z,89.27
2023-01-17T01:41:14.576Z,109.23
2023-01-17T01:43:50.222Z,104.70
2023-01-17T01:46:25.155Z,96.30
2023-01-17T01:48:56.795Z,99.27
2023-01-17T01:51:30.673Z,93.50
2023-01-17T01:54:05.522Z,94.20
2023-01-17T01:56:34.598Z,99.50
2023-01-17T01:59:05.483Z,98.17
2023-01-17T02:01:37.291Z,99.80
2023-01-17T02:04:10.050Z,107.50
2023-01-17T02:06:41.145Z,97.27
2023-01-17T02:09:13.754Z,92.77
2023-01-17T02:11:42.748Z,104.13
2023-01-17T02:14:16.794Z,103.33
2023-01-17T02:17:05.366Z,91.17
2023-01-17T02:20:10.802Z,103.83
2023-01-17T02:23:11.322Z,86.93
2023-01-17T02:26:30.772Z,92.30
2023-01-17T02:29:32.213Z,100.53
2023-01-17T02:32:06.297Z,100.37
2023-01-17T02:34:42.392Z,98.03
2023-01-17T02:37:17.932Z,98.37
2023-01-17T02:39:54.310Z,96.77
2023-01-17T02:42:28.030Z,100.30
2023-01-17T02:44:56.482Z,99.30
2023-01-17T02:47:29.747Z,98.50
2023-01-17T02:50:02.195Z,99.77
2023-01-17T02:52:48.204Z,113.17
2023-01-17T02:55:28.207Z,104.90
2023-01-17T02:58:10.161Z,99.87
2023-01-17T03:00:48.812Z,98.83
2023-01-17T03:03:25.052Z,102.67
2023-01-17T03:05:58.359Z,104.77
2023-01-17T03:08:27.869Z,109.57
2023-01-17T03:10:56.636Z,97.47
2023-01-17T03:13:25.209Z,117.33
2023-01-17T03:15:53.708Z,119.67
2023-01-17T03:18:23.927Z,113.17
2023-01-17T03:20:52.418Z,112.63
2023-01-17T03:23:20.877Z,110.60
2023-01-17T03:25:50.522Z,116.37
2023-01-17T03:28:19.053Z,111.50
2023-01-17T03:30:47.945Z,111.23
2023-01-17T03:33:18.149Z,106.67
2023-01-17T03:35:49.409Z,103.93
2023-01-17T03:38:17.938Z,103.53
2023-01-17T03:40:46.398Z,103.30
2023-01-17T03:43:14.849Z,113.93
2023-01-17T03:45:43.322Z,108.20
2023-01-17T03:48:11.996Z,113.17
2023-01-17T03:50:40.447Z,119.07
2023-01-17T03:53:10.702Z,111.20
2023-01-17T03:55:39.154Z,112.27
2023-01-17T03:58:07.684Z,110.70
2023-01-17T04:00:38.666Z,110.50
2023-01-17T04:03:07.103Z,104.97
2023-01-17T04:05:35.590Z,115.70
2023-01-17T04:08:04.219Z,116.67
2023-01-17T04:10:34.278Z,117.27
2023-01-17T04:13:02.741Z,116.00
2023-01-17T04:15:31.355Z,105.47
2023-01-17T04:18:00.178Z,108.50
2023-01-17T04:20:33.978Z,99.93
2023-01-17T04:23:02.559Z,97.70
2023-01-17T04:25:31.312Z,116.73
2023-01-17T04:28:02.573Z,123.50
2023-01-17T04:30:31.544Z,115.00
2023-01-17T04:33:03.490Z,108.00
2023-01-17T04:35:34.147Z,116.57
2023-01-17T04:38:02.608Z,117.70
2023-01-17T04:40:31.236Z,108.33
2023-01-17T04:43:01.058Z,121.03
2023-01-17T04:45:29.505Z,112.90
2023-01-17T04:48:03.073Z,117.33
2023-01-17T04:50:33.835Z,115.40
2023-01-17T04:53:02.562Z,123.57
2023-01-17T04:55:31.046Z,120.23
2023-01-17T04:58:01.209Z,123.60
2023-01-17T05:00:30.190Z,123.20
2023-01-17T05:02:58.693Z,121.87
2023-01-17T05:05:29.851Z,116.97
2023-01-17T05:08:01.601Z,109.93
2023-01-17T05:10:31.465Z,114.90
2023-01-17T05:13:01.546Z,111.20
2023-01-17T05:15:30.690Z,107.50
2023-01-17T05:17:59.301Z,118.10
2023-01-17T05:20:30.464Z,129.43
2023-01-17T05:22:59.284Z,120.40
2023-01-17T05:25:29.958Z,116.17
2023-01-17T05:28:00.055Z,128.03
2023-01-17T05:30:31.621Z,114.37
2023-01-17T05:33:00.523Z,110.47
2023-01-17T05:35:32.663Z,118.47
2023-01-17T05:38:04.394Z,98.00
2023-01-17T05:40:34.404Z,92.20
2023-01-17T05:43:05.609Z,90.37
2023-01-17T05:45:36.003Z,93.40
2023-01-17T05:48:09.277Z,85.13
2023-01-17T05:50:39.262Z,97.03
2023-01-17T05:53:09.381Z,100.10
2023-01-17T05:55:38.797Z,84.47
2023-01-17T05:58:08.722Z,89.07
2023-01-17T06:00:41.564Z,94.33
2023-01-17T06:03:11.738Z,85.37
2023-01-17T06:05:40.441Z,93.53
2023-01-17T06:08:09.066Z,96.10
2023-01-17T06:10:37.593Z,105.07
2023-01-17T06:13:07.980Z,126.07
2023-01-17T06:15:38.852Z,122.70
2023-01-17T06:18:07.979Z,108.13
2023-01-17T06:20:36.455Z,120.63
2023-01-17T06:23:06.625Z,103.57
2023-01-17T06:25:38.867Z,116.47
2023-01-17T06:28:08.002Z,111.90
2023-01-17T06:30:37.990Z,110.93
2023-01-17T06:33:09.300Z,122.03
2023-01-17T06:35:38.345Z,112.77
2023-01-17T06:38:06.804Z,111.23
2023-01-17T06:40:35.290Z,119.63
2023-01-17T06:43:06.342Z,109.33
2023-01-17T06:45:36.438Z,114.37
2023-01-17T06:48:06.827Z,108.87
2023-01-17T06:50:38.107Z,113.07
2023-01-17T06:53:08.261Z,128.40
2023-01-17T06:55:40.370Z,119.23
2023-01-17T06:58:10.857Z,124.60
2023-01-17T07:00:40.921Z,111.43
2023-01-17T07:03:20.053Z,127.67
2023-01-17T07:05:49.019Z,128.47
2023-01-17T07:08:18.606Z,122.40
2023-01-17T07:10:49.374Z,128.43
2023-01-17T07:13:17.975Z,119.47
2023-01-17T07:15:48.112Z,127.00
2023-01-17T07:18:20.720Z,125.57
2023-01-17T07:20:49.350Z,117.73
2023-01-17T07:23:21.496Z,130.60
2023-01-17T07:25:53.707Z,130.57
2023-01-17T07:28:24.290Z,130.97
2023-01-17T07:30:53.035Z,136.23
2023-01-17T07:33:23.099Z,128.90
2023-01-17T07:35:51.697Z,128.63
2023-01-17T07:38:21.413Z,121.70
2023-01-17T07:40:52.012Z,119.57
2023-01-17T07:43:20.477Z,132.67
2023-01-17T07:45:51.627Z,143.60
2023-01-17T07:48:23.623Z,132.37
2023-01-17T07:51:00.990Z,139.27
2023-01-17T07:53:31.357Z,135.67
2023-01-17T07:56:02.951Z,142.87
2023-01-17T07:58:31.428Z,134.77
2023-01-17T08:01:05.765Z,141.30
2023-01-17T08:03:39.856Z,131.50
2023-01-17T08:06:18.362Z,130.87
2023-01-17T08:08:47.960Z,140.40
2023-01-17T08:11:16.822Z,143.03
2023-01-17T08:13:45.273Z,135.17
2023-01-17T08:16:15.445Z,136.10
2023-01-17T08:18:45.539Z,137.77
2023-01-17T08:21:16.912Z,136.97
2023-01-17T08:23:48.423Z,130.50
2023-01-17T08:26:21.482Z,133.40
2023-01-17T08:28:50.776Z,139.53
2023-01-17T08:31:19.878Z,138.33
2023-01-17T08:33:49.805Z,141.63
2023-01-17T08:36:21.769Z,125.70
2023-01-17T08:38:52.866Z,134.30
2023-01-17T08:41:22.474Z,144.00
2023-01-17T08:43:52.022Z,140.80
2023-01-17T08:46:20.893Z,130.67
2023-01-17T08:48:56.322Z,129.23
2023-01-17T08:51:26.485Z,132.53
2023-01-17T08:53:56.879Z,137.27
2023-01-17T08:56:26.041Z,127.80
2023-01-17T08:58:54.947Z,122.70
2023-01-17T09:01:23.797Z,132.07
2023-01-17T09:03:53.769Z,134.30
2023-01-17T09:06:24.301Z,136.23
2023-01-17T09:08:54.871Z,141.30
2023-01-17T09:11:23.301Z,155.77
2023-01-17T09:13:54.799Z,125.53
2023-01-17T09:16:24.570Z,139.53
2023-01-17T09:18:57.067Z,149.13
2023-01-17T09:21:28.569Z,153.13
2023-01-17T09:23:57.291Z,123.13
2023-01-17T09:26:28.106Z,130.90
2023-01-17T09:28:59.082Z,124.23
2023-01-17T09:31:30.767Z,132.07
2023-01-17T09:34:03.033Z,121.70
2023-01-17T09:36:33.922Z,118.63
2023-01-17T09:39:03.606Z,131.37
2023-01-17T09:41:34.279Z,107.10
2023-01-17T09:44:07.004Z,127.40
2023-01-17T09:46:40.914Z,131.20
2023-01-17T09:49:16.281Z,130.47
2023-01-17T09:51:45.451Z,105.50
2023-01-17T09:54:22.915Z,102.50
2023-01-17T09:56:59.630Z,101.07
2023-01-17T09:59:35.940Z,99.80
2023-01-17T10:02:18.424Z,88.57
2023-01-17T10:05:12.474Z,75.63
2023-01-17T10:07:52.038Z,70.13
2023-01-17T10:10:35.979Z,61.10
2023-01-17T10:13:13.885Z,57.73
2023-01-17T10:15:55.193Z,57.83
2023-01-17T10:18:57.274Z,53.87
2023-01-17T10:21:43.306Z,48.00
2023-01-17T10:24:53.985Z,57.30
2023-01-17T10:27:27.018Z,48.17
2023-01-17T10:29:55.586Z,57.30
2023-01-17T10:32:28.223Z,58.40
2023-01-17T10:34:59.063Z,73.63
2023-01-17T10:37:39.027Z,71.27
2023-01-17T10:40:19.932Z,77.70
2023-01-17T10:42:58.696Z,60.70
2023-01-17T10:45:29.391Z,59.07
2023-01-17T10:48:04.705Z,69.23
2023-01-17T10:50:42.080Z,62.57
2023-01-17T10:53:23.920Z,70.90
2023-01-17T10:55:54.415Z,61.67
2023-01-17T10:58:23.036Z,67.07
2023-01-17T11:00:56.492Z,71.53
2023-01-17T11:03:25.790Z,71.10
2023-01-17T11:06:19.148Z,57.43
2023-01-17T11:08:54.127Z,59.63
2023-01-17T11:11:25.968Z,66.60
2023-01-17T11:13:56.442Z,70.67
2023-01-17T11:16:28.766Z,64.50
2023-01-17T11:19:14.887Z,63.27
2023-01-17T11:21:53.128Z,62.57
2023-01-17T11:24:35.932Z,68.97
2023-01-17T11:27:06.525Z,71.40
2023-01-17T11:29:37.204Z,68.07
2023-01-17T11:32:30.991Z,71.67
2023-01-17T11:35:21.244Z,65.90
2023-01-17T11:37:58.049Z,64.53
2023-01-17T11:40:30.974Z,57.53
2023-01-17T11:43:05.728Z,56.50
2023-01-17T11:45:35.272Z,68.83
2023-01-17T11:48:12.808Z,62.43
2023-01-17T11:50:43.261Z,71.80
2023-01-17T11:53:20.853Z,65.87
2023-01-17T11:56:05.255Z,63.23
2023-01-17T11:58:35.621Z,71.90
2023-01-17T12:01:19.985Z,61.33
2023-01-17T12:04:02.985Z,65.73
2023-01-17T12:06:56.492Z,60.77
2023-01-17T12:09:34.162Z,63.43
2023-01-17T12:12:31.189Z,55.63
2023-01-17T12:15:15.602Z,55.30
2023-01-17T12:17:57.958Z,54.57
2023-01-17T12:20:32.912Z,50.83
2023-01-17T12:23:22.237Z,50.33
2023-01-17T12:26:00.798Z,53.87
2023-01-17T12:28:55.800Z,48.83
2023-01-17T12:31:33.570Z,48.90
2023-01-17T12:34:15.410Z,47.50
2023-01-17T12:36:49.772Z,44.87
2023-01-17T12:39:24.631Z,37.80
2023-01-17T12:42:00.348Z,38.77
2023-01-17T12:44:50.211Z,36.63
2023-01-17T12:47:21.071Z,32.87
2023-01-17T12:49:57.702Z,31.97
2023-01-17T12:52:38.917Z,30.20
2023-01-17T12:55:16.613Z,28.13
2023-01-17T12:57:48.977Z,27.37
2023-01-17T13:00:23.663Z,27.40
2023-01-17T13:02:58.242Z,25.97
2023-01-17T13:05:33.058Z,21.90
2023-01-17T13:08:07.736Z,22.97
2023-01-17T13:10:40.662Z,19.00
2023-01-17T13:13:22.354Z,19.83
2023-01-17T13:15:55.420Z,21.50
2023-01-17T13:18:29.717Z,19.47
2023-01-17T13:21:10.562Z,17.87
2023-01-17T13:23:55.892Z,16.20
2023-01-17T13:26:41.560Z,22.67
2023-01-17T13:29:17.672Z,18.70
2023-01-17T13:31:50.689Z,18.80
2023-01-17T13:34:53.228Z,16.57
2023-01-17T13:37:46.955Z,19.67
2023-01-17T13:40:34.074Z,17.63
2023-01-17T13:43:03.880Z,17.10
2023-01-17T13:45:34.716Z,13.97
2023-01-17T13:48:28.546Z,12.67
2023-01-17T13:50:57.671Z,13.30
2023-01-17T13:53:57.356Z,14.27
2023-01-17T13:56:31.503Z,11.47
2023-01-17T13:59:35.983Z,11.33
2023-01-17T14:02:04.467Z,12.70
2023-01-17T14:05:20.395Z,12.20
2023-01-17T14:07:57.185Z,9.90
2023-01-17T14:10:35.117Z,10.27
2023-01-17T14:13:05.531Z,10.27
2023-01-17T14:15:48.075Z,8.87
2023-01-17T14:18:33.547Z,9.90
2023-01-17T14:21:12.596Z,9.37
2023-01-17T14:24:07.504Z,11.57
2023-01-17T14:26:46.537Z,9.90
2023-01-17T14:29:49.333Z,12.20
2023-01-17T14:32:20.640Z,10.47
2023-01-17T14:34:53.401Z,13.20
2023-01-17T14:37:29.082Z,14.67
2023-01-17T14:40:01.191Z,11.90
2023-01-17T14:42:31.792Z,11.70
2023-01-17T14:45:06.744Z,13.73
2023-01-17T14:47:39.306Z,12.90
2023-01-17T14:50:16.184Z,13.10
2023-01-17T14:52:45.059Z,12.93
2023-01-17T14:55:21.653Z,14.37
2023-01-17T14:57:57.024Z,16.90
2023-01-17T15:00:29.176Z,15.37
2023-01-17T15:03:00.113Z,15.33
2023-01-17T15:05:31.312Z,19.50
2023-01-17T15:08:01.713Z,17.70
2023-01-17T15:10:33.812Z,18.00
2023-01-17T15:13:10.087Z,17.57
2023-01-17T15:15:41.996Z,14.63
2023-01-17T15:18:23.164Z,16.40
2023-01-17T15:20:56.995Z,14.90
2023-01-17T15:23:31.743Z,14.83
2023-01-17T15:26:03.196Z,15.90
2023-01-17T15:28:32.224Z,15.70
2023-01-17T15:31:10.173Z,14.20
2023-01-17T15:33:41.652Z,14.60
2023-01-17T15:36:13.762Z,14.50
2023-01-17T15:38:50.309Z,14.10
2023-01-17T15:41:23.761Z,14.47
2023-01-17T15:43:57.464Z,15.80
2023-01-17T15:46:33.888Z,13.60
2023-01-17T15:49:17.759Z,16.47
2023-01-17T15:51:53.765Z,17.87
2023-01-17T15:54:47.638Z,15.50
2023-01-17T15:57:26.870Z,15.90
2023-01-17T16:00:06.032Z,14.87
2023-01-17T16:02:37.953Z,17.33
2023-01-17T16:05:38.862Z,16.50
2023-01-17T16:08:33.249Z,18.00
2023-01-17T16:11:06.138Z,17.93
2023-01-17T16:13:38.717Z,15.97
2023-01-17T16:16:15.698Z,14.43
2023-01-17T16:18:46.593Z,14.43
2023-01-17T16:21:19.961Z,18.30
2023-01-17T16:23:48.643Z,17.70
2023-01-17T16:26:17.391Z,21.30
2023-01-17T16:28:47.780Z,16.93
2023-01-17T16:31:16.528Z,16.33
2023-01-17T16:33:46.170Z,17.87
2023-01-17T16:36:16.681Z,21.10
2023-01-17T16:38:46.296Z,20.40
2023-01-17T16:41:14.749Z,24.77
2023-01-17T16:43:43.230Z,23.40
2023-01-17T16:46:15.586Z,20.53
2023-01-17T16:48:46.142Z,22.17
2023-01-17T16:51:14.633Z,21.30
2023-01-17T16:53:43.073Z,21.77
2023-01-17T16:56:14.586Z,23.30
2023-01-17T16:58:43.070Z,27.63
2023-01-17T17:01:15.548Z,23.83
2023-01-17T17:03:44.895Z,27.80
2023-01-17T17:06:13.767Z,25.50
2023-01-17T17:08:43.185Z,25.50
2023-01-17T17:11:14.178Z,25.00
2023-01-17T17:13:44.519Z,20.70
2023-01-17T17:16:17.835Z,20.40
2023-01-17T17:18:48.038Z,21.87
2023-01-17T17:21:19.385Z,25.07
2023-01-17T17:23:51.012Z,25.13
2023-01-17T17:26:19.516Z,21.40
2023-01-17T17:28:52.584Z,17.80
2023-01-17T17:31:22.796Z,21.67
2023-01-17T17:33:51.328Z,20.40
2023-01-17T17:36:20.044Z,17.70
2023-01-17T17:38:54.363Z,18.87
2023-01-17T17:41:25.215Z,18.30
2023-01-17T17:43:54.029Z,15.63
2023-01-17T17:46:26.758Z,21.20
2023-01-17T17:48:55.309Z,18.33
2023-01-17T17:51:28.264Z,18.53
2023-01-17T17:54:00.923Z,17.10
2023-01-17T17:56:30.447Z,16.80
2023-01-17T17:58:59.619Z,17.13
2023-01-17T18:01:30.587Z,17.30
2023-01-17T18:04:03.130Z,14.97
2023-01-17T18:06:34.521Z,15.73
2023-01-17T18:09:03.106Z,14.30
2023-01-17T18:11:33.239Z,19.50
2023-01-17T18:14:03.627Z,16.87
2023-01-17T18:16:36.319Z,17.50
2023-01-17T18:19:06.418Z,16.40
2023-01-17T18:21:37.413Z,16.40
2023-01-17T18:24:08.263Z,15.23
2023-01-17T18:26:38.386Z,19.17
2023-01-17T18:29:08.497Z,15.63
2023-01-17T18:31:38.516Z,15.50
2023-01-17T18:34:09.095Z,17.50
2023-01-17T18:36:38.009Z,17.83
2023-01-17T18:39:12.001Z,16.10
2023-01-17T18:41:40.441Z,16.87
2023-01-17T18:44:09.479Z,18.57
2023-01-17T18:46:40.231Z,20.83
2023-01-17T18:49:11.232Z,18.17
2023-01-17T18:51:40.260Z,18.70
2023-01-17T18:54:08.941Z,19.00
2023-01-17T18:56:37.478Z,21.67
2023-01-17T18:59:07.108Z,22.70
2023-01-17T19:01:38.541Z,22.10
2023-01-17T19:04:08.478Z,22.97
2023-01-17T19:06:41.635Z,22.53
2023-01-17T19:09:12.114Z,28.70
2023-01-17T19:11:43.104Z,19.00
2023-01-17T19:14:12.345Z,22.10
2023-01-17T19:16:42.076Z,20.30
2023-01-17T19:19:14.935Z,21.90
2023-01-17T19:21:43.459Z,28.53
2023-01-17T19:24:14.175Z,26.73
2023-01-17T19:26:43.360Z,28.07
2023-01-17T19:29:12.159Z,25.53
2023-01-17T19:31:43.260Z,27.70
2023-01-17T19:34:16.124Z,28.50
2023-01-17T19:36:45.342Z,26.67
2023-01-17T19:39:14.802Z,31.83
2023-01-17T19:41:44.712Z,30.50
2023-01-17T19:44:15.616Z,32.20
2023-01-17T19:46:46.090Z,30.70
2023-01-17T19:49:21.033Z,32.67
2023-01-17T19:51:51.281Z,31.33
2023-01-17T19:54:19.721Z,32.87
2023-01-17T19:56:48.248Z,36.53
2023-01-17T19:59:20.180Z,35.07
2023-01-17T20:01:49.621Z,36.37
2023-01-17T20:04:19.864Z,40.57
2023-01-17T20:06:48.336Z,36.20
2023-01-17T20:09:17.105Z,34.73
2023-01-17T20:11:46.719Z,34.60
2023-01-17T20:14:16.623Z,38.97
2023-01-17T20:16:50.010Z,34.50
2023-01-17T20:19:20.228Z,47.13
2023-01-17T20:21:48.760Z,36.87
2023-01-17T20:24:17.298Z,39.43
2023-01-17T20:26:46.819Z,45.10
2023-01-17T20:29:17.115Z,38.77
2023-01-17T20:31:46.757Z,40.53
2023-01-17T20:34:18.734Z,46.70
2023-01-17T20:36:48.809Z,49.00
2023-01-17T20:39:18.906Z,47.77
2023-01-17T20:41:50.283Z,48.23
2023-01-17T20:44:20.056Z,53.67
2023-01-17T20:46:49.230Z,51.80
2023-01-17T20:49:20.497Z,56.60
2023-01-17T20:51:50.603Z,64.40
2023-01-17T20:54:20.723Z,59.63
2023-01-17T20:56:49.520Z,59.10
2023-01-17T20:59:20.189Z,65.40
2023-01-17T21:01:49.393Z,62.00
2023-01-17T21:04:25.416Z,66.77
2023-01-17T21:06:58.800Z,61.97
2023-01-17T21:09:27.351Z,64.27
2023-01-17T21:12:01.039Z,71.93
2023-01-17T21:14:29.720Z,70.60
2023-01-17T21:17:00.138Z,69.60
2023-01-17T21:19:28.947Z,66.47
2023-01-17T21:21:59.412Z,67.33
2023-01-17T21:24:28.724Z,70.67
2023-01-17T21:27:00.682Z,72.23
2023-01-17T21:29:32.282Z,66.30
2023-01-17T21:32:00.926Z,63.80
2023-01-17T21:34:32.040Z,69.63
2023-01-17T21:37:02.260Z,63.40
2023-01-17T21:39:31.385Z,59.63
2023-01-17T21:41:59.892Z,61.63
2023-01-17T21:44:35.997Z,61.07
2023-01-17T21:47:05.093Z,66.97
2023-01-17T21:49:33.709Z,68.97
2023-01-17T21:52:21.682Z,65.63
2023-01-17T21:55:09.814Z,69.20
2023-01-17T21:57:56.014Z,71.10
2023-01-17T22:00:24.891Z,66.43
2023-01-17T22:02:53.455Z,101.17
2023-01-17T22:05:21.936Z,73.17
2023-01-17T22:08:12.259Z,75.57
2023-01-17T22:10:45.531Z,75.23
2023-01-17T22:13:15.329Z,64.53
2023-01-17T22:15:46.758Z,77.47
2023-01-17T22:18:17.989Z,71.47
2023-01-17T22:20:46.494Z,66.63
2023-01-17T22:23:16.304Z,63.77
2023-01-17T22:25:45.034Z,59.60
2023-01-17T22:28:13.641Z,65.97
2023-01-17T22:30:42.171Z,63.30
2023-01-17T22:33:10.731Z,61.23
2023-01-17T22:35:39.200Z,59.70
2023-01-17T22:38:09.865Z,63.37
2023-01-17T22:40:39.713Z,56.90
2023-01-17T22:43:08.181Z,60.47
2023-01-17T22:45:36.605Z,57.07
2023-01-17T22:48:08.074Z,47.73
2023-01-17T22:50:36.645Z,48.07
2023-01-17T22:53:05.197Z,50.00
2023-01-17T22:55:35.553Z,56.30
2023-01-17T22:58:07.106Z,50.90
2023-01-17T23:00:35.737Z,47.10
2023-01-17T23:03:06.374Z,51.13
2023-01-17T23:05:34.970Z,52.33
2023-01-17T23:08:03.483Z,54.97
2023-01-17T23:10:49.305Z,54.07
2023-01-17T23:13:19.636Z,61.27
2023-01-17T23:16:06.378Z,53.63
2023-01-17T23:18:52.156Z,60.40
2023-01-17T23:21:20.601Z,59.87
2023-01-17T23:23:48.996Z,63.10
2023-01-17T23:26:17.433Z,52.83
2023-01-17T23:28:46.287Z,59.80
2023-01-17T23:31:16.405Z,60.27
2023-01-17T23:33:44.833Z,75.20
2023-01-17T23:36:13.282Z,61.63
2023-01-17T23:38:44.145Z,58.60
2023-01-17T23:41:44.631Z,58.97
2023-01-17T23:44:15.246Z,62.73
2023-01-17T23:46:43.745Z,58.27
2023-01-17T23:49:12.397Z,61.40
2023-01-17T23:51:40.828Z,54.33
2023-01-17T23:54:10.321Z,54.83
2023-01-17T23:56:38.810Z,53.17
2023-01-17T23:59:07.379Z,55.47
